createdAt,value
2024-03-08T00:00:53.748Z,94299.00
2024-03-08T00:01:53.841Z,94301.00
2024-03-08T00:02:53.913Z,94300.00
2024-03-08T00:03:53.926Z,94300.00
2024-03-08T00:04:53.979Z,94300.00
2024-03-08T00:05:54.145Z,94302.00
2024-03-08T00:06:54.092Z,94303.00
2024-03-08T00:07:54.167Z,94300.00
2024-03-08T00:08:54.249Z,94302.00
2024-03-08T00:09:54.226Z,94301.00
2024-03-08T00:10:54.362Z,94302.00
2024-03-08T00:11:54.398Z,94299.00
2024-03-08T00:12:54.410Z,94298.00
2024-03-08T00:13:54.436Z,94301.00
2024-03-08T00:14:54.554Z,94299.00
2024-03-08T00:15:54.586Z,94300.00
2024-03-08T00:16:54.631Z,94300.00
2024-03-08T00:17:54.850Z,94300.00
2024-03-08T00:18:54.871Z,94298.00
2024-03-08T00:19:54.841Z,94296.00
2024-03-08T00:20:54.923Z,94296.00
2024-03-08T00:21:55.054Z,94294.00
2024-03-08T00:22:55.075Z,94292.00
2024-03-08T00:23:55.240Z,94293.00
2024-03-08T00:24:55.177Z,94293.00
2024-03-08T00:25:55.209Z,94290.00
2024-03-08T00:26:55.345Z,94287.00
2024-03-08T00:27:55.336Z,94289.00
2024-03-08T00:28:55.406Z,94288.00
2024-03-08T00:29:55.574Z,94288.00
2024-03-08T00:30:55.545Z,94288.00
2024-03-08T00:31:55.626Z,94286.00
2024-03-08T00:32:55.817Z,94284.00
2024-03-08T00:33:55.928Z,94282.00
2024-03-08T00:34:55.857Z,94283.00
2024-03-08T00:35:56.005Z,94281.00
2024-03-08T00:36:55.980Z,94281.00
2024-03-08T00:37:56.084Z,94278.00
2024-03-08T00:38:56.240Z,94278.00
2024-03-08T00:39:56.184Z,94281.00
2024-03-08T00:40:56.257Z,94278.00
2024-03-08T00:41:56.338Z,94277.00
2024-03-08T00:42:56.408Z,94277.00
2024-03-08T00:43:56.431Z,94275.00
2024-03-08T00:44:56.514Z,94276.00
2024-03-08T00:45:56.529Z,94276.00
2024-03-08T00:46:56.617Z,94274.00
2024-03-08T00:47:56.833Z,94273.00
2024-03-08T00:48:56.806Z,94273.00
2024-03-08T00:49:56.803Z,94273.00
2024-03-08T00:50:56.904Z,94272.00
2024-03-08T00:51:56.887Z,94274.00
2024-03-08T00:52:56.943Z,94273.00
2024-03-08T00:53:57.076Z,94272.00
2024-03-08T00:54:57.081Z,94274.00
2024-03-08T00:55:57.145Z,94274.00
2024-03-08T00:56:57.248Z,94273.00
2024-03-08T00:57:57.271Z,94273.00
2024-03-08T00:58:57.342Z,94274.00
2024-03-08T00:59:57.504Z,94273.00
2024-03-08T01:00:57.468Z,94275.00
2024-03-08T01:01:57.506Z,94275.00
2024-03-08T01:02:57.630Z,94275.00
2024-03-08T01:03:57.617Z,94275.00
2024-03-08T01:04:57.677Z,94273.00
2024-03-08T01:05:57.826Z,94273.00
2024-03-08T01:06:57.791Z,94271.00
2024-03-08T01:07:57.856Z,94270.00
2024-03-08T01:08:57.972Z,94272.00
2024-03-08T01:09:57.998Z,94270.00
2024-03-08T01:10:58.070Z,94270.00
2024-03-08T01:11:58.168Z,94267.00
2024-03-08T01:12:58.185Z,94270.00
2024-03-08T01:13:58.216Z,94268.00
2024-03-08T01:14:58.361Z,94267.00
2024-03-08T01:15:58.338Z,94267.00
2024-03-08T01:16:58.421Z,94267.00
2024-03-08T01:17:58.673Z,94267.00
2024-03-08T01:18:58.722Z,94266.00
2024-03-08T01:19:58.582Z,94266.00
2024-03-08T01:20:58.668Z,94265.00
2024-03-08T01:21:58.673Z,94265.00
2024-03-08T01:22:58.734Z,94265.00
2024-03-08T01:23:58.845Z,94263.00
2024-03-08T01:24:58.845Z,94260.00
2024-03-08T01:25:58.932Z,94261.00
2024-03-08T01:26:58.957Z,94257.00
2024-03-08T01:27:59.021Z,94256.00
2024-03-08T01:28:59.077Z,94254.00
2024-03-08T01:29:59.228Z,94253.00
2024-03-08T01:30:59.181Z,94250.00
2024-03-08T01:31:59.266Z,94249.00
2024-03-08T01:32:59.393Z,94249.00
2024-03-08T01:33:59.482Z,94246.00
2024-03-08T01:34:59.497Z,94245.00
2024-03-08T01:35:59.619Z,94243.00
2024-03-08T01:36:59.724Z,94243.00
2024-03-08T01:37:59.705Z,94239.00
2024-03-08T01:38:59.791Z,94238.00
2024-03-08T01:39:59.825Z,94237.00
2024-03-08T01:40:59.883Z,94238.00
2024-03-08T01:41:59.956Z,94236.00
2024-03-08T01:43:00.041Z,94235.00
2024-03-08T01:44:00.112Z,94233.00
2024-03-08T01:45:00.250Z,94234.00
2024-03-08T01:46:00.241Z,94232.00
2024-03-08T01:47:00.352Z,94232.00
2024-03-08T01:48:00.463Z,94232.00
2024-03-08T01:49:00.517Z,94232.00
2024-03-08T01:50:00.514Z,94230.00
2024-03-08T01:51:00.681Z,94229.00
2024-03-08T01:52:00.790Z,94228.00
2024-03-08T01:53:00.796Z,94225.00
2024-03-08T01:54:00.801Z,94225.00
2024-03-08T01:55:00.859Z,94222.00
2024-03-08T01:56:00.969Z,94223.00
2024-03-08T01:57:01.094Z,94217.00
2024-03-08T01:58:01.067Z,94219.00
2024-03-08T01:59:01.118Z,94219.00
2024-03-08T02:00:01.255Z,94217.00
2024-03-08T02:01:01.296Z,94218.00
2024-03-08T02:02:01.326Z,94217.00
2024-03-08T02:03:01.441Z,94216.00
2024-03-08T02:04:01.476Z,94215.00
2024-03-08T02:05:01.568Z,94216.00
2024-03-08T02:06:01.638Z,94218.00
2024-03-08T02:07:01.671Z,94215.00
2024-03-08T02:08:01.771Z,94214.00
2024-03-08T02:09:01.837Z,94213.00
2024-03-08T02:10:01.935Z,94213.00
2024-03-08T02:11:01.976Z,94211.00
2024-03-08T02:12:02.053Z,94212.00
2024-03-08T02:13:02.113Z,94212.00
2024-03-08T02:14:02.157Z,94210.00
2024-03-08T02:15:02.334Z,94210.00
2024-03-08T02:16:02.315Z,94209.00
2024-03-08T02:17:02.351Z,94210.00
2024-03-08T02:18:02.530Z,94209.00
2024-03-08T02:19:02.518Z,94209.00
2024-03-08T02:20:02.586Z,94206.00
2024-03-08T02:21:02.669Z,94207.00
2024-03-08T02:22:02.719Z,94204.00
2024-03-08T02:23:02.805Z,94205.00
2024-03-08T02:24:02.908Z,94202.00
2024-03-08T02:25:02.932Z,94199.00
2024-03-08T02:26:03.076Z,94202.00
2024-03-08T02:27:03.172Z,94199.00
2024-03-08T02:28:03.192Z,94198.00
2024-03-08T02:29:03.190Z,94199.00
2024-03-08T02:30:03.361Z,94200.00
2024-03-08T02:31:03.407Z,94199.00
2024-03-08T02:32:03.406Z,94201.00
2024-03-08T02:33:03.739Z,94197.00
2024-03-08T02:34:03.548Z,94198.00
2024-03-08T02:35:03.635Z,94197.00
2024-03-08T02:36:03.717Z,94196.00
2024-03-08T02:37:03.782Z,94198.00
2024-03-08T02:38:03.858Z,94197.00
2024-03-08T02:39:03.951Z,94197.00
2024-03-08T02:40:03.974Z,94196.00
2024-03-08T02:41:04.026Z,94196.00
2024-03-08T02:42:04.135Z,94195.00
2024-03-08T02:43:04.205Z,94193.00
2024-03-08T02:44:04.229Z,94195.00
2024-03-08T02:45:04.384Z,94194.00
2024-03-08T02:46:04.386Z,94193.00
2024-03-08T02:47:04.446Z,94192.00
2024-03-08T02:48:04.644Z,94192.00
2024-03-08T02:49:04.563Z,94193.00
2024-03-08T02:50:04.643Z,94191.00
2024-03-08T02:51:04.769Z,94191.00
2024-03-08T02:52:04.767Z,94190.00
2024-03-08T02:53:04.901Z,94189.00
2024-03-08T02:54:04.944Z,94189.00
2024-03-08T02:55:04.976Z,94188.00
2024-03-08T02:56:05.046Z,94186.00
2024-03-08T02:57:05.143Z,94188.00
2024-03-08T02:58:05.172Z,94186.00
2024-03-08T02:59:05.207Z,94188.00
2024-03-08T03:00:05.391Z,94188.00
2024-03-08T03:01:05.352Z,94186.00
2024-03-08T03:02:05.399Z,94186.00
2024-03-08T03:03:05.600Z,94185.00
2024-03-08T03:04:05.532Z,94183.00
2024-03-08T03:05:05.599Z,94186.00
2024-03-08T03:06:05.692Z,94183.00
2024-03-08T03:07:05.731Z,94184.00
2024-03-08T03:08:05.866Z,94184.00
2024-03-08T03:09:05.865Z,94182.00
2024-03-08T03:10:05.939Z,94182.00
2024-03-08T03:11:06.001Z,94183.00
2024-03-08T03:12:06.104Z,94181.00
2024-03-08T03:13:06.496Z,94182.00
2024-03-08T03:14:06.170Z,94180.00
2024-03-08T03:15:06.257Z,94180.00
2024-03-08T03:16:06.271Z,94180.00
2024-03-08T03:17:06.307Z,94178.00
2024-03-08T03:18:06.442Z,94178.00
2024-03-08T03:19:06.396Z,94179.00
2024-03-08T03:20:06.438Z,94179.00
2024-03-08T03:21:06.539Z,94178.00
2024-03-08T03:22:06.528Z,94177.00
2024-03-08T03:23:06.620Z,94175.00
2024-03-08T03:24:06.679Z,94177.00
2024-03-08T03:25:06.680Z,94178.00
2024-03-08T03:26:06.708Z,94178.00
2024-03-08T03:27:06.844Z,94177.00
2024-03-08T03:28:06.848Z,94181.00
2024-03-08T03:29:06.873Z,94179.00
2024-03-08T03:30:07.079Z,94180.00
2024-03-08T03:31:09.581Z,94178.00
2024-03-08T03:32:06.939Z,94178.00
2024-03-08T03:33:07.138Z,94178.00
2024-03-08T03:34:06.959Z,94178.00
2024-03-08T03:35:06.954Z,94180.00
2024-03-08T03:36:07.000Z,94179.00
2024-03-08T03:37:06.949Z,94176.00
2024-03-08T03:38:07.199Z,94176.00
2024-03-08T03:39:07.079Z,94178.00
2024-03-08T03:40:06.973Z,94178.00
2024-03-08T03:41:06.979Z,94175.00
2024-03-08T03:42:07.035Z,94174.00
2024-03-08T03:43:07.108Z,94175.00
2024-03-08T03:44:06.963Z,94173.00
2024-03-08T03:45:07.082Z,94173.00
2024-03-08T03:46:06.982Z,94174.00
2024-03-08T03:47:06.974Z,94171.00
2024-03-08T03:48:07.080Z,94171.00
2024-03-08T03:49:06.976Z,94172.00
2024-03-08T03:50:06.978Z,94173.00
2024-03-08T03:51:07.030Z,94172.00
2024-03-08T03:52:06.996Z,94170.00
2024-03-08T03:53:07.288Z,94170.00
2024-03-08T03:54:07.062Z,94170.00
2024-03-08T03:55:07.021Z,94170.00
2024-03-08T03:56:06.991Z,94169.00
2024-03-08T03:57:07.139Z,94169.00
2024-03-08T03:58:07.035Z,94167.00
2024-03-08T03:59:07.001Z,94165.00
2024-03-08T04:00:07.070Z,94168.00
2024-03-08T04:01:07.026Z,94167.00
2024-03-08T04:02:06.999Z,94168.00
2024-03-08T04:03:07.320Z,94166.00
2024-03-08T04:04:07.006Z,94166.00
2024-03-08T04:05:07.012Z,94168.00
2024-03-08T04:06:07.080Z,94167.00
2024-03-08T04:07:07.018Z,94165.00
2024-03-08T04:08:07.052Z,94165.00
2024-03-08T04:09:07.083Z,94165.00
2024-03-08T04:10:07.016Z,94163.00
2024-03-08T04:11:07.041Z,94164.00
2024-03-08T04:12:07.061Z,94165.00
2024-03-08T04:13:07.078Z,94163.00
2024-03-08T04:14:07.016Z,94162.00
2024-03-08T04:15:07.079Z,94163.00
2024-03-08T04:16:07.029Z,94158.00
2024-03-08T04:17:07.086Z,94157.00
2024-03-08T04:18:07.345Z,94161.00
2024-03-08T04:19:07.226Z,94157.00
2024-03-08T04:20:07.276Z,94158.00
2024-03-08T04:21:07.356Z,94158.00
2024-03-08T04:22:07.380Z,94158.00
2024-03-08T04:23:07.468Z,94160.00
2024-03-08T04:24:07.518Z,94159.00
2024-03-08T04:25:07.546Z,94156.00
2024-03-08T04:26:07.609Z,94155.00
2024-03-08T04:27:07.711Z,94155.00
2024-03-08T04:28:07.668Z,94156.00
2024-03-08T04:29:07.697Z,94152.00
2024-03-08T04:30:07.797Z,94154.00
2024-03-08T04:31:07.830Z,94154.00
2024-03-08T04:32:07.897Z,94152.00
2024-03-08T04:33:08.036Z,94153.00
2024-03-08T04:34:08.092Z,94153.00
2024-03-08T04:35:08.047Z,94152.00
2024-03-08T04:36:08.171Z,94151.00
2024-03-08T04:37:08.170Z,94152.00
2024-03-08T04:38:15.462Z,94150.00
2024-03-08T04:39:15.441Z,94148.00
2024-03-08T04:40:15.412Z,94148.00
2024-03-08T04:41:15.415Z,94148.00
2024-03-08T04:42:15.467Z,94147.00
2024-03-08T04:43:15.460Z,94145.00
2024-03-08T04:44:15.438Z,94147.00
2024-03-08T04:45:15.513Z,94146.00
2024-03-08T04:46:15.426Z,94147.00
2024-03-08T04:47:15.447Z,94147.00
2024-03-08T04:48:15.581Z,94148.00
2024-03-08T04:49:15.428Z,94147.00
2024-03-08T04:50:15.427Z,94146.00
2024-03-08T04:51:15.470Z,94146.00
2024-03-08T04:52:15.432Z,94144.00
2024-03-08T04:53:15.477Z,94144.00
2024-03-08T04:54:15.514Z,94144.00
2024-03-08T04:55:15.447Z,94144.00
2024-03-08T04:56:15.430Z,94145.00
2024-03-08T04:57:15.636Z,94144.00
2024-03-08T04:58:15.479Z,94146.00
2024-03-08T04:59:15.442Z,94143.00
2024-03-08T05:00:15.493Z,94146.00
2024-03-08T05:01:15.566Z,94144.00
2024-03-08T05:02:15.460Z,94145.00
2024-03-08T05:03:15.527Z,94145.00
2024-03-08T05:04:15.448Z,94145.00
2024-03-08T05:05:15.453Z,94146.00
2024-03-08T05:06:15.537Z,94146.00
2024-03-08T05:07:15.461Z,94144.00
2024-03-08T05:08:15.446Z,94146.00
2024-03-08T05:09:15.590Z,94144.00
2024-03-08T05:10:15.505Z,94141.00
2024-03-08T05:11:15.505Z,94142.00
2024-03-08T05:12:15.536Z,94141.00
2024-03-08T05:13:15.464Z,94140.00
2024-03-08T05:14:15.461Z,94142.00
2024-03-08T05:15:15.521Z,94141.00
2024-03-08T05:16:15.499Z,94142.00
2024-03-08T05:17:15.493Z,94144.00
2024-03-08T05:18:15.681Z,94143.00
2024-03-08T05:19:15.613Z,94142.00
2024-03-08T05:20:15.641Z,94141.00
2024-03-08T05:21:15.739Z,94142.00
2024-03-08T05:22:15.685Z,94145.00
2024-03-08T05:23:15.721Z,94143.00
2024-03-08T05:24:15.824Z,94144.00
2024-03-08T05:25:15.744Z,94145.00
2024-03-08T05:26:15.780Z,94144.00
2024-03-08T05:27:15.903Z,94142.00
2024-03-08T05:28:15.902Z,94144.00
2024-03-08T05:29:16.308Z,94144.00
2024-03-08T05:30:16.126Z,94143.00
2024-03-08T05:31:16.020Z,94144.00
2024-03-08T05:32:16.043Z,94143.00
2024-03-08T05:33:16.170Z,94145.00
2024-03-08T05:34:16.080Z,94145.00
2024-03-08T05:35:16.108Z,94145.00
2024-03-08T05:36:16.280Z,94144.00
2024-03-08T05:37:16.176Z,94143.00
2024-03-08T05:38:16.182Z,94142.00
2024-03-08T05:39:16.372Z,94142.00
2024-03-08T05:40:18.024Z,94143.00
2024-03-08T05:41:16.215Z,94143.00
2024-03-08T05:42:16.363Z,94144.00
2024-03-08T05:43:16.259Z,94145.00
2024-03-08T05:44:16.221Z,94144.00
2024-03-08T05:45:16.306Z,94144.00
2024-03-08T05:46:16.242Z,94145.00
2024-03-08T05:47:16.221Z,94145.00
2024-03-08T05:48:16.301Z,94145.00
2024-03-08T05:49:16.465Z,94144.00
2024-03-08T05:50:16.230Z,94145.00
2024-03-08T05:51:16.310Z,94146.00
2024-03-08T05:52:16.234Z,94145.00
2024-03-08T05:53:16.232Z,94149.00
2024-03-08T05:54:18.371Z,94146.00
2024-03-08T05:55:16.255Z,94146.00
2024-03-08T05:56:16.235Z,94147.00
2024-03-08T05:57:16.351Z,94147.00
2024-03-08T05:58:16.256Z,94146.00
2024-03-08T05:59:16.259Z,94146.00
2024-03-08T06:00:16.298Z,94148.00
2024-03-08T06:01:16.321Z,94145.00
2024-03-08T06:02:16.285Z,94148.00
2024-03-08T06:03:16.365Z,94148.00
2024-03-08T06:04:16.247Z,94148.00
2024-03-08T06:05:16.248Z,94148.00
2024-03-08T06:06:16.330Z,94145.00
2024-03-08T06:07:16.262Z,94150.00
2024-03-08T06:08:16.323Z,94149.00
2024-03-08T06:09:16.299Z,94147.00
2024-03-08T06:10:16.259Z,94147.00
2024-03-08T06:11:16.339Z,94148.00
2024-03-08T06:12:16.283Z,94150.00
2024-03-08T06:13:16.300Z,94147.00
2024-03-08T06:14:16.278Z,94149.00
2024-03-08T06:15:16.512Z,94150.00
2024-03-08T06:16:16.290Z,94151.00
2024-03-08T06:17:16.264Z,94150.00
2024-03-08T06:18:16.394Z,94148.00
2024-03-08T06:19:16.252Z,94149.00
2024-03-08T06:20:16.281Z,94149.00
2024-03-08T06:21:16.304Z,94151.00
2024-03-08T06:22:16.301Z,94151.00
2024-03-08T06:23:16.286Z,94150.00
2024-03-08T06:24:16.450Z,94152.00
2024-03-08T06:25:16.259Z,94155.00
2024-03-08T06:26:16.253Z,94156.00
2024-03-08T06:27:16.298Z,94154.00
2024-03-08T06:28:16.292Z,94155.00
2024-03-08T06:29:16.285Z,94154.00
2024-03-08T06:30:16.370Z,94153.00
2024-03-08T06:31:16.265Z,94155.00
2024-03-08T06:32:16.266Z,94158.00
2024-03-08T06:33:16.478Z,94160.00
2024-03-08T06:34:16.309Z,94159.00
2024-03-08T06:35:18.076Z,94162.00
2024-03-08T06:36:16.400Z,94162.00
2024-03-08T06:37:16.378Z,94161.00
2024-03-08T06:38:16.469Z,94161.00
2024-03-08T06:39:16.524Z,94163.00
2024-03-08T06:40:16.580Z,94162.00
2024-03-08T06:41:16.760Z,94162.00
2024-03-08T06:42:39.195Z,94163.00
2024-03-08T06:43:16.690Z,94166.00
2024-03-08T06:44:16.667Z,94165.00
2024-03-08T06:45:16.759Z,94167.00
2024-03-08T06:46:16.727Z,94170.00
2024-03-08T06:47:16.665Z,94172.00
2024-03-08T06:48:16.764Z,94167.00
2024-03-08T06:49:16.677Z,94167.00
2024-03-08T06:50:16.687Z,94167.00
2024-03-08T06:51:16.697Z,94165.00
2024-03-08T06:52:16.677Z,94166.00
2024-03-08T06:53:18.269Z,94166.00
2024-03-08T06:54:16.736Z,94163.00
2024-03-08T06:55:16.681Z,94163.00
2024-03-08T06:56:16.693Z,94166.00
2024-03-08T06:57:16.717Z,94166.00
2024-03-08T06:58:38.691Z,94167.00
2024-03-08T06:59:16.683Z,94168.00
2024-03-08T07:00:16.778Z,94165.00
2024-03-08T07:01:16.699Z,94166.00
2024-03-08T07:02:16.691Z,94162.00
2024-03-08T07:03:16.728Z,94162.00
2024-03-08T07:04:16.763Z,94159.00
2024-03-08T07:05:16.702Z,94157.00
2024-03-08T07:06:16.821Z,94159.00
2024-03-08T07:07:16.692Z,94161.00
2024-03-08T07:08:16.707Z,94160.00
2024-03-08T07:09:16.805Z,94160.00
2024-03-08T07:10:16.714Z,94158.00
2024-03-08T07:11:16.721Z,94158.00
2024-03-08T07:12:16.790Z,94157.00
2024-03-08T07:13:16.706Z,94157.00
2024-03-08T07:14:16.759Z,94154.00
2024-03-08T07:15:16.830Z,94153.00
2024-03-08T07:16:16.731Z,94153.00
2024-03-08T07:17:16.720Z,94152.00
2024-03-08T07:18:16.874Z,94154.00
2024-03-08T07:19:16.740Z,94154.00
2024-03-08T07:20:16.733Z,94151.00
2024-03-08T07:21:16.870Z,94151.00
2024-03-08T07:22:16.709Z,94151.00
2024-03-08T07:23:16.754Z,94151.00
2024-03-08T07:24:16.808Z,94153.00
2024-03-08T07:25:16.752Z,94150.00
2024-03-08T07:26:38.854Z,94146.00
2024-03-08T07:27:16.830Z,94146.00
2024-03-08T07:28:16.827Z,94145.00
2024-03-08T07:29:16.804Z,94147.00
2024-03-08T07:30:16.823Z,94144.00
2024-03-08T07:31:16.809Z,94144.00
2024-03-08T07:32:16.828Z,94142.00
2024-03-08T07:33:16.983Z,94142.00
2024-03-08T07:34:16.814Z,94143.00
2024-03-08T07:35:16.836Z,94140.00
2024-03-08T07:36:16.839Z,94140.00
2024-03-08T07:37:16.832Z,94142.00
2024-03-08T07:38:16.890Z,94141.00
2024-03-08T07:39:16.908Z,94138.00
2024-03-08T07:40:16.877Z,94139.00
2024-03-08T07:41:16.822Z,94136.00
2024-03-08T07:42:16.868Z,94134.00
2024-03-08T07:43:16.823Z,94135.00
2024-03-08T07:44:16.822Z,94134.00
2024-03-08T07:45:16.976Z,94136.00
2024-03-08T07:46:16.818Z,94134.00
2024-03-08T07:47:16.845Z,94133.00
2024-03-08T07:48:38.995Z,94136.00
2024-03-08T07:49:16.819Z,94134.00
2024-03-08T07:50:16.861Z,94134.00
2024-03-08T07:51:17.003Z,94133.00
2024-03-08T07:52:16.854Z,94134.00
2024-03-08T07:53:16.882Z,94135.00
2024-03-08T07:54:16.875Z,94132.00
2024-03-08T07:55:16.826Z,94130.00
2024-03-08T07:56:16.840Z,94128.00
2024-03-08T07:57:16.840Z,94127.00
2024-03-08T07:58:16.882Z,94125.00
2024-03-08T07:59:16.839Z,94123.00
2024-03-08T08:00:16.859Z,94123.00
2024-03-08T08:01:16.882Z,94119.00
2024-03-08T08:02:16.950Z,94118.00
2024-03-08T08:03:16.905Z,94117.00
2024-03-08T08:04:16.861Z,94114.00
2024-03-08T08:05:16.849Z,94113.00
2024-03-08T08:06:17.005Z,94114.00
2024-03-08T08:07:16.901Z,94111.00
2024-03-08T08:08:16.884Z,94108.00
2024-03-08T08:09:16.853Z,94107.00
2024-03-08T08:10:16.884Z,94107.00
2024-03-08T08:11:17.005Z,94103.00
2024-03-08T08:12:16.856Z,94101.00
2024-03-08T08:13:17.074Z,94099.00
2024-03-08T08:14:16.858Z,94095.00
2024-03-08T08:15:16.878Z,94089.00
2024-03-08T08:16:16.920Z,94088.00
2024-03-08T08:17:16.855Z,94084.00
2024-03-08T08:18:16.894Z,94083.00
2024-03-08T08:19:16.908Z,94081.00
2024-03-08T08:20:16.849Z,94081.00
2024-03-08T08:21:16.878Z,94080.00
2024-03-08T08:22:16.931Z,94078.00
2024-03-08T08:23:16.920Z,94078.00
2024-03-08T08:24:16.878Z,94075.00
2024-03-08T08:25:17.009Z,94073.00
2024-03-08T08:26:16.881Z,94073.00
2024-03-08T08:27:16.862Z,94072.00
2024-03-08T08:28:16.899Z,94068.00
2024-03-08T08:29:16.851Z,94069.00
2024-03-08T08:30:16.853Z,94066.00
2024-03-08T08:31:16.900Z,94065.00
2024-03-08T08:32:16.948Z,94063.00
2024-03-08T08:33:17.049Z,94061.00
2024-03-08T08:34:17.133Z,94060.00
2024-03-08T08:35:17.164Z,94058.00
2024-03-08T08:36:17.263Z,94055.00
2024-03-08T08:37:18.586Z,94055.00
2024-03-08T08:38:17.373Z,94056.00
2024-03-08T08:39:17.309Z,94057.00
2024-03-08T08:40:17.364Z,94057.00
2024-03-08T08:41:17.316Z,94058.00
2024-03-08T08:42:17.316Z,94058.00
2024-03-08T08:43:17.406Z,94055.00
2024-03-08T08:44:17.490Z,94056.00
2024-03-08T08:45:18.287Z,94054.00
2024-03-08T08:46:17.352Z,94053.00
2024-03-08T08:47:17.322Z,94050.00
2024-03-08T08:48:17.360Z,94045.00
2024-03-08T08:49:17.393Z,94042.00
2024-03-08T08:50:17.398Z,94042.00
2024-03-08T08:51:17.296Z,94041.00
2024-03-08T08:52:17.789Z,94039.00
2024-03-08T08:53:17.362Z,94038.00
2024-03-08T08:54:17.315Z,94033.00
2024-03-08T08:55:17.401Z,94035.00
2024-03-08T08:56:17.318Z,94033.00
2024-03-08T08:57:17.302Z,94032.00
2024-03-08T08:58:17.373Z,94031.00
2024-03-08T08:59:20.361Z,94027.00
2024-03-08T09:00:17.341Z,94027.00
2024-03-08T09:01:17.354Z,94026.00
2024-03-08T09:02:18.155Z,94023.00
2024-03-08T09:03:17.314Z,94020.00
2024-03-08T09:04:17.376Z,94019.00
2024-03-08T09:05:17.334Z,94019.00
2024-03-08T09:06:17.332Z,94016.00
2024-03-08T09:07:17.425Z,94014.00
2024-03-08T09:08:17.365Z,94015.00
2024-03-08T09:09:17.320Z,94012.00
2024-03-08T09:10:18.417Z,94008.00
2024-03-08T09:11:17.389Z,94005.00
2024-03-08T09:12:17.350Z,94006.00
2024-03-08T09:13:24.951Z,94004.00
2024-03-08T09:14:18.369Z,94001.00
2024-03-08T09:15:17.328Z,93999.00
2024-03-08T09:16:18.233Z,93997.00
2024-03-08T09:17:17.421Z,93994.00
2024-03-08T09:18:17.329Z,93991.00
2024-03-08T09:19:17.404Z,93992.00
2024-03-08T09:20:17.328Z,93991.00
2024-03-08T09:21:17.344Z,93992.00
2024-03-08T09:22:17.415Z,93992.00
2024-03-08T09:23:17.374Z,93989.00
2024-03-08T09:24:17.347Z,93988.00
2024-03-08T09:25:17.420Z,93988.00
2024-03-08T09:26:23.237Z,93986.00
2024-03-08T09:27:18.365Z,93981.00
2024-03-08T09:28:17.726Z,93980.00
2024-03-08T09:29:17.358Z,93980.00
2024-03-08T09:30:17.360Z,93982.00
2024-03-08T09:31:17.409Z,93979.00
2024-03-08T09:32:17.360Z,93975.00
2024-03-08T09:33:17.449Z,93975.00
2024-03-08T09:34:20.604Z,93975.00
2024-03-08T09:35:18.383Z,93974.00
2024-03-08T09:36:17.379Z,93972.00
2024-03-08T09:37:17.403Z,93968.00
2024-03-08T09:38:17.420Z,93967.00
2024-03-08T09:39:17.382Z,93968.00
2024-03-08T09:40:17.400Z,93964.00
2024-03-08T09:41:17.388Z,93966.00
2024-03-08T09:42:17.455Z,93964.00
2024-03-08T09:43:17.730Z,93963.00
2024-03-08T09:44:17.375Z,93962.00
2024-03-08T09:45:17.403Z,93959.00
2024-03-08T09:46:17.450Z,93958.00
2024-03-08T09:47:17.496Z,93957.00
2024-03-08T09:48:17.429Z,93954.00
2024-03-08T09:49:17.499Z,93954.00
2024-03-08T09:50:17.399Z,93953.00
2024-03-08T09:51:17.452Z,93950.00
2024-03-08T09:52:17.525Z,93949.00
2024-03-08T09:53:17.589Z,93948.00
2024-03-08T09:54:22.869Z,93947.00
2024-03-08T09:55:18.692Z,93946.00
2024-03-08T09:56:17.610Z,93945.00
2024-03-08T09:57:19.637Z,93941.00
2024-03-08T09:58:17.672Z,93940.00
2024-03-08T09:59:17.634Z,93939.00
2024-03-08T10:00:17.701Z,93936.00
2024-03-08T10:01:17.705Z,93934.00
2024-03-08T10:02:17.935Z,93935.00
2024-03-08T10:03:17.669Z,93933.00
2024-03-08T10:04:17.680Z,93928.00
2024-03-08T10:05:17.646Z,93928.00
2024-03-08T10:06:17.621Z,93928.00
2024-03-08T10:07:17.632Z,93926.00
2024-03-08T10:08:17.664Z,93929.00
2024-03-08T10:09:17.638Z,93928.00
2024-03-08T10:10:17.698Z,93930.00
2024-03-08T10:11:17.695Z,93929.00
2024-03-08T10:12:17.672Z,93929.00
2024-03-08T10:13:17.732Z,93926.00
2024-03-08T10:14:19.253Z,93926.00
2024-03-08T10:15:17.634Z,93923.00
2024-03-08T10:16:17.646Z,93922.00
2024-03-08T10:17:17.639Z,93921.00
2024-03-08T10:18:17.697Z,93919.00
2024-03-08T10:19:17.673Z,93919.00
2024-03-08T10:20:17.668Z,93917.00
2024-03-08T10:21:17.642Z,93915.00
2024-03-08T10:22:17.672Z,93913.00
2024-03-08T10:23:17.712Z,93911.00
2024-03-08T10:24:17.749Z,93909.00
2024-03-08T10:25:17.851Z,93910.00
2024-03-08T10:26:17.895Z,93909.00
2024-03-08T10:27:17.952Z,93907.00
2024-03-08T10:28:18.073Z,93908.00
2024-03-08T10:29:18.091Z,93904.00
2024-03-08T10:30:18.203Z,93903.00
2024-03-08T10:31:19.483Z,93906.00
2024-03-08T10:32:18.271Z,93904.00
2024-03-08T10:33:18.277Z,93904.00
2024-03-08T10:34:18.425Z,93902.00
2024-03-08T10:35:18.443Z,93903.00
2024-03-08T10:36:18.507Z,93898.00
2024-03-08T10:37:18.654Z,93898.00
2024-03-08T10:38:18.655Z,93898.00
2024-03-08T10:39:18.760Z,93896.00
2024-03-08T10:40:18.827Z,93893.00
2024-03-08T10:41:18.861Z,93891.00
2024-03-08T10:42:18.890Z,93889.00
2024-03-08T10:43:18.958Z,93889.00
2024-03-08T10:44:19.017Z,93887.00
2024-03-08T10:45:19.020Z,93883.00
2024-03-08T10:46:19.122Z,93885.00
2024-03-08T10:47:19.164Z,93883.00
2024-03-08T10:48:19.260Z,93883.00
2024-03-08T10:49:19.293Z,93882.00
2024-03-08T10:50:19.311Z,93880.00
2024-03-08T10:51:19.382Z,93877.00
2024-03-08T10:52:19.452Z,93877.00
2024-03-08T10:53:19.486Z,93875.00
2024-03-08T10:54:19.570Z,93872.00
2024-03-08T10:55:19.658Z,93869.00
2024-03-08T10:56:19.644Z,93868.00
2024-03-08T10:57:19.699Z,93870.00
2024-03-08T10:58:19.754Z,93866.00
2024-03-08T10:59:19.765Z,93867.00
2024-03-08T11:00:19.798Z,93865.00
2024-03-08T11:01:19.892Z,93864.00
2024-03-08T11:02:19.860Z,93861.00
2024-03-08T11:03:19.864Z,93858.00
2024-03-08T11:04:19.966Z,93860.00
2024-03-08T11:05:19.988Z,93858.00
2024-03-08T11:06:20.029Z,93856.00
2024-03-08T11:07:20.097Z,93856.00
2024-03-08T11:08:20.147Z,93855.00
2024-03-08T11:09:20.185Z,93854.00
2024-03-08T11:10:20.269Z,93852.00
2024-03-08T11:11:20.355Z,93851.00
2024-03-08T11:12:20.283Z,93851.00
2024-03-08T11:13:20.330Z,93850.00
2024-03-08T11:14:20.380Z,93848.00
2024-03-08T11:15:20.452Z,93845.00
2024-03-08T11:16:20.355Z,93843.00
2024-03-08T11:17:20.365Z,93842.00
2024-03-08T11:18:20.423Z,93841.00
2024-03-08T11:19:20.411Z,93840.00
2024-03-08T11:20:20.373Z,93835.00
2024-03-08T11:21:20.410Z,93837.00
2024-03-08T11:22:20.423Z,93833.00
2024-03-08T11:23:20.399Z,93831.00
2024-03-08T11:24:20.421Z,93832.00
2024-03-08T11:25:20.471Z,93828.00
2024-03-08T11:26:20.474Z,93827.00
2024-03-08T11:27:20.482Z,93825.00
2024-03-08T11:28:20.967Z,93822.00
2024-03-08T11:29:20.486Z,93818.00
2024-03-08T11:30:20.523Z,93816.00
2024-03-08T11:31:20.553Z,93813.00
2024-03-08T11:32:20.503Z,93814.00
2024-03-08T11:33:20.492Z,93810.00
2024-03-08T11:34:20.551Z,93806.00
2024-03-08T11:35:20.504Z,93807.00
2024-03-08T11:36:20.516Z,93803.00
2024-03-08T11:37:20.557Z,93803.00
2024-03-08T11:38:20.513Z,93803.00
2024-03-08T11:39:20.561Z,93804.00
2024-03-08T11:40:20.823Z,93802.00
2024-03-08T11:41:20.562Z,93801.00
2024-03-08T11:42:20.654Z,93799.00
2024-03-08T11:43:20.584Z,93799.00
2024-03-08T11:44:20.569Z,93796.00
2024-03-08T11:45:20.647Z,93796.00